sensor_id;sensor_type;location;lat;lon;timestamp;P1;durP1;ratioP1;P2;durP2;ratioP2
15665;SDS011;20725;51.196;3.510;2023-04-24T00:04:23;10.30;;;6.80;;
15665;SDS011;20725;51.196;3.510;2023-04-24T00:06:53;14.23;;;6.57;;
15665;SDS011;20725;51.196;3.510;2023-04-24T00:09:22;15.23;;;6.63;;
15665;SDS011;20725;51.196;3.510;2023-04-24T00:11:49;9.03;;;6.57;;
15665;SDS011;20725;51.196;3.510;2023-04-24T00:14:16;10.53;;;6.17;;
15665;SDS011;20725;51.196;3.510;2023-04-24T00:16:43;14.40;;;6.60;;
15665;SDS011;20725;51.196;3.510;2023-04-24T00:19:11;12.30;;;5.83;;
15665;SDS011;20725;51.196;3.510;2023-04-24T00:21:38;15.83;;;7.63;;
15665;SDS011;20725;51.196;3.510;2023-04-24T00:24:07;10.87;;;6.47;;
15665;SDS011;20725;51.196;3.510;2023-04-24T00:26:35;13.50;;;6.67;;
15665;SDS011;20725;51.196;3.510;2023-04-24T00:29:02;9.40;;;6.20;;
15665;SDS011;20725;51.196;3.510;2023-04-24T00:31:29;16.33;;;6.73;;
15665;SDS011;20725;51.196;3.510;2023-04-24T00:33:59;12.77;;;6.77;;
15665;SDS011;20725;51.196;3.510;2023-04-24T00:36:27;12.47;;;7.77;;
15665;SDS011;20725;51.196;3.510;2023-04-24T00:38:55;15.13;;;7.13;;
15665;SDS011;20725;51.196;3.510;2023-04-24T00:41:24;15.23;;;7.23;;
15665;SDS011;20725;51.196;3.510;2023-04-24T00:43:51;15.67;;;8.07;;
15665;SDS011;20725;51.196;3.510;2023-04-24T00:46:19;16.07;;;7.57;;
15665;SDS011;20725;51.196;3.510;2023-04-24T00:48:46;13.57;;;7.70;;
15665;SDS011;20725;51.196;3.510;2023-04-24T00:51:13;15.63;;;8.47;;
15665;SDS011;20725;51.196;3.510;2023-04-24T00:53:40;15.40;;;9.27;;
15665;SDS011;20725;51.196;3.510;2023-04-24T00:56:08;17.30;;;10.07;;
15665;SDS011;20725;51.196;3.510;2023-04-24T00:58:36;17.77;;;9.50;;
15665;SDS011;20725;51.196;3.510;2023-04-24T01:03:40;28.00;;;12.80;;
15665;SDS011;20725;51.196;3.510;2023-04-24T01:06:08;23.17;;;13.20;;
15665;SDS011;20725;51.196;3.510;2023-04-24T01:08:36;24.43;;;13.03;;
15665;SDS011;20725;51.196;3.510;2023-04-24T01:11:04;22.07;;;12.80;;
15665;SDS011;20725;51.196;3.510;2023-04-24T01:13:31;30.70;;;15.37;;
15665;SDS011;20725;51.196;3.510;2023-04-24T01:16:00;30.23;;;16.13;;
15665;SDS011;20725;51.196;3.510;2023-04-24T01:18:27;33.73;;;17.57;;
15665;SDS011;20725;51.196;3.510;2023-04-24T01:20:56;37.10;;;19.37;;
15665;SDS011;20725;51.196;3.510;2023-04-24T01:23:25;43.27;;;20.37;;
15665;SDS011;20725;51.196;3.510;2023-04-24T01:25:53;40.23;;;20.93;;
15665;SDS011;20725;51.196;3.510;2023-04-24T01:28:20;41.17;;;22.10;;
15665;SDS011;20725;51.196;3.510;2023-04-24T01:30:48;45.37;;;23.73;;
15665;SDS011;20725;51.196;3.510;2023-04-24T01:33:15;45.87;;;22.70;;
15665;SDS011;20725;51.196;3.510;2023-04-24T01:35:42;57.97;;;26.10;;
15665;SDS011;20725;51.196;3.510;2023-04-24T01:38:10;54.63;;;25.57;;
15665;SDS011;20725;51.196;3.510;2023-04-24T01:40:38;57.60;;;25.33;;
15665;SDS011;20725;51.196;3.510;2023-04-24T01:43:06;60.73;;;28.50;;
15665;SDS011;20725;51.196;3.510;2023-04-24T01:45:33;56.23;;;26.37;;
15665;SDS011;20725;51.196;3.510;2023-04-24T01:48:01;53.43;;;26.53;;
15665;SDS011;20725;51.196;3.510;2023-04-24T01:50:28;55.23;;;25.03;;
15665;SDS011;20725;51.196;3.510;2023-04-24T01:52:55;44.70;;;20.23;;
15665;SDS011;20725;51.196;3.510;2023-04-24T01:55:22;41.23;;;18.63;;
15665;SDS011;20725;51.196;3.510;2023-04-24T01:57:51;31.00;;;14.00;;
15665;SDS011;20725;51.196;3.510;2023-04-24T02:00:19;24.60;;;11.63;;
15665;SDS011;20725;51.196;3.510;2023-04-24T02:02:46;20.43;;;10.50;;
15665;SDS011;20725;51.196;3.510;2023-04-24T02:05:13;18.33;;;9.27;;
15665;SDS011;20725;51.196;3.510;2023-04-24T02:07:41;19.27;;;8.53;;
15665;SDS011;20725;51.196;3.510;2023-04-24T02:10:09;18.03;;;8.87;;
15665;SDS011;20725;51.196;3.510;2023-04-24T02:12:36;20.70;;;10.13;;
15665;SDS011;20725;51.196;3.510;2023-04-24T02:15:05;17.60;;;8.87;;
15665;SDS011;20725;51.196;3.510;2023-04-24T02:17:32;19.57;;;8.90;;
15665;SDS011;20725;51.196;3.510;2023-04-24T02:20:00;22.17;;;10.17;;
15665;SDS011;20725;51.196;3.510;2023-04-24T02:22:27;19.13;;;9.47;;
15665;SDS011;20725;51.196;3.510;2023-04-24T02:24:55;22.83;;;10.17;;
15665;SDS011;20725;51.196;3.510;2023-04-24T02:27:22;21.97;;;9.57;;
15665;SDS011;20725;51.196;3.510;2023-04-24T02:29:49;19.80;;;10.47;;
15665;SDS011;20725;51.196;3.510;2023-04-24T02:32:18;19.73;;;9.23;;
15665;SDS011;20725;51.196;3.510;2023-04-24T02:34:45;20.57;;;9.43;;
15665;SDS011;20725;51.196;3.510;2023-04-24T02:37:12;18.73;;;9.43;;
15665;SDS011;20725;51.196;3.510;2023-04-24T02:39:40;15.33;;;8.93;;
15665;SDS011;20725;51.196;3.510;2023-04-24T02:42:07;18.83;;;9.97;;
15665;SDS011;20725;51.196;3.510;2023-04-24T02:44:34;22.00;;;10.90;;
15665;SDS011;20725;51.196;3.510;2023-04-24T02:47:02;19.20;;;11.43;;
15665;SDS011;20725;51.196;3.510;2023-04-24T02:49:31;19.07;;;10.80;;
15665;SDS011;20725;51.196;3.510;2023-04-24T02:51:58;21.47;;;11.63;;
15665;SDS011;20725;51.196;3.510;2023-04-24T02:54:25;25.33;;;13.83;;
15665;SDS011;20725;51.196;3.510;2023-04-24T02:56:52;29.70;;;14.20;;
15665;SDS011;20725;51.196;3.510;2023-04-24T02:59:20;26.70;;;14.87;;
15665;SDS011;20725;51.196;3.510;2023-04-24T03:01:47;30.23;;;16.03;;
15665;SDS011;20725;51.196;3.510;2023-04-24T03:04:14;32.83;;;16.97;;
15665;SDS011;20725;51.196;3.510;2023-04-24T03:06:46;32.30;;;17.73;;
15665;SDS011;20725;51.196;3.510;2023-04-24T03:09:13;33.07;;;17.43;;
15665;SDS011;20725;51.196;3.510;2023-04-24T03:11:41;41.37;;;20.97;;
15665;SDS011;20725;51.196;3.510;2023-04-24T03:14:08;43.13;;;20.73;;
15665;SDS011;20725;51.196;3.510;2023-04-24T03:16:35;47.00;;;23.57;;
15665;SDS011;20725;51.196;3.510;2023-04-24T03:19:03;43.97;;;22.20;;
15665;SDS011;20725;51.196;3.510;2023-04-24T03:21:30;46.60;;;21.33;;
15665;SDS011;20725;51.196;3.510;2023-04-24T03:23:59;35.87;;;19.97;;
15665;SDS011;20725;51.196;3.510;2023-04-24T03:26:27;31.63;;;18.10;;
15665;SDS011;20725;51.196;3.510;2023-04-24T03:28:54;45.07;;;20.27;;
15665;SDS011;20725;51.196;3.510;2023-04-24T03:31:21;37.77;;;20.77;;
15665;SDS011;20725;51.196;3.510;2023-04-24T03:33:49;41.40;;;20.50;;
15665;SDS011;20725;51.196;3.510;2023-04-24T03:36:16;35.40;;;18.10;;
15665;SDS011;20725;51.196;3.510;2023-04-24T03:38:44;39.83;;;18.30;;
15665;SDS011;20725;51.196;3.510;2023-04-24T03:41:12;35.23;;;17.93;;
15665;SDS011;20725;51.196;3.510;2023-04-24T03:43:40;33.10;;;19.20;;
15665;SDS011;20725;51.196;3.510;2023-04-24T03:46:07;40.37;;;19.07;;
15665;SDS011;20725;51.196;3.510;2023-04-24T03:48:34;45.57;;;19.20;;
15665;SDS011;20725;51.196;3.510;2023-04-24T03:51:02;35.53;;;18.23;;
15665;SDS011;20725;51.196;3.510;2023-04-24T03:53:29;35.80;;;18.60;;
15665;SDS011;20725;51.196;3.510;2023-04-24T03:55:56;34.87;;;18.80;;
15665;SDS011;20725;51.196;3.510;2023-04-24T03:58:25;36.37;;;20.07;;
15665;SDS011;20725;51.196;3.510;2023-04-24T04:00:52;31.30;;;18.40;;
15665;SDS011;20725;51.196;3.510;2023-04-24T04:03:22;30.73;;;18.10;;
15665;SDS011;20725;51.196;3.510;2023-04-24T04:05:50;34.73;;;17.83;;
15665;SDS011;20725;51.196;3.510;2023-04-24T04:08:18;38.33;;;19.83;;
15665;SDS011;20725;51.196;3.510;2023-04-24T04:10:45;35.20;;;17.93;;
15665;SDS011;20725;51.196;3.510;2023-04-24T04:13:12;35.70;;;19.67;;
15665;SDS011;20725;51.196;3.510;2023-04-24T04:15:41;35.83;;;19.43;;
15665;SDS011;20725;51.196;3.510;2023-04-24T04:18:08;34.67;;;20.63;;
15665;SDS011;20725;51.196;3.510;2023-04-24T04:20:36;31.37;;;19.97;;
15665;SDS011;20725;51.196;3.510;2023-04-24T04:23:03;41.40;;;21.87;;
15665;SDS011;20725;51.196;3.510;2023-04-24T04:25:30;36.83;;;20.27;;
15665;SDS011;20725;51.196;3.510;2023-04-24T04:27:57;36.87;;;19.10;;
15665;SDS011;20725;51.196;3.510;2023-04-24T04:30:25;35.20;;;19.20;;
15665;SDS011;20725;51.196;3.510;2023-04-24T04:32:55;33.87;;;19.97;;
15665;SDS011;20725;51.196;3.510;2023-04-24T04:35:23;39.03;;;19.43;;
15665;SDS011;20725;51.196;3.510;2023-04-24T04:37:50;43.43;;;20.57;;
15665;SDS011;20725;51.196;3.510;2023-04-24T04:40:17;35.57;;;20.50;;
15665;SDS011;20725;51.196;3.510;2023-04-24T04:42:45;41.13;;;20.70;;
15665;SDS011;20725;51.196;3.510;2023-04-24T04:45:12;40.87;;;21.60;;
15665;SDS011;20725;51.196;3.510;2023-04-24T04:47:41;33.73;;;20.07;;
15665;SDS011;20725;51.196;3.510;2023-04-24T04:50:10;42.30;;;22.13;;
15665;SDS011;20725;51.196;3.510;2023-04-24T04:52:38;43.40;;;21.73;;
15665;SDS011;20725;51.196;3.510;2023-04-24T04:55:06;42.20;;;22.67;;
15665;SDS011;20725;51.196;3.510;2023-04-24T04:57:33;47.60;;;23.50;;
15665;SDS011;20725;51.196;3.510;2023-04-24T05:00:00;37.67;;;20.63;;
15665;SDS011;20725;51.196;3.510;2023-04-24T05:02:29;44.20;;;22.27;;
15665;SDS011;20725;51.196;3.510;2023-04-24T05:04:57;43.83;;;21.77;;
15665;SDS011;20725;51.196;3.510;2023-04-24T05:07:25;36.40;;;20.07;;
15665;SDS011;20725;51.196;3.510;2023-04-24T05:09:56;41.90;;;20.00;;
15665;SDS011;20725;51.196;3.510;2023-04-24T05:12:25;49.73;;;22.53;;
15665;SDS011;20725;51.196;3.510;2023-04-24T05:14:53;42.90;;;21.13;;
15665;SDS011;20725;51.196;3.510;2023-04-24T05:17:20;47.23;;;22.13;;
15665;SDS011;20725;51.196;3.510;2023-04-24T05:19:47;47.60;;;23.07;;
15665;SDS011;20725;51.196;3.510;2023-04-24T05:22:14;54.33;;;22.23;;
15665;SDS011;20725;51.196;3.510;2023-04-24T05:24:45;38.73;;;21.90;;
15665;SDS011;20725;51.196;3.510;2023-04-24T05:27:12;42.13;;;22.53;;
15665;SDS011;20725;51.196;3.510;2023-04-24T05:29:40;49.03;;;21.83;;
15665;SDS011;20725;51.196;3.510;2023-04-24T05:32:08;49.47;;;21.93;;
15665;SDS011;20725;51.196;3.510;2023-04-24T05:34:35;39.43;;;20.47;;
15665;SDS011;20725;51.196;3.510;2023-04-24T05:37:03;39.07;;;21.00;;
15665;SDS011;20725;51.196;3.510;2023-04-24T05:39:33;43.57;;;21.57;;
15665;SDS011;20725;51.196;3.510;2023-04-24T05:42:02;42.90;;;20.90;;
15665;SDS011;20725;51.196;3.510;2023-04-24T05:44:30;40.97;;;20.97;;
15665;SDS011;20725;51.196;3.510;2023-04-24T05:46:57;44.87;;;20.07;;
15665;SDS011;20725;51.196;3.510;2023-04-24T05:49:25;34.77;;;17.73;;
15665;SDS011;20725;51.196;3.510;2023-04-24T05:51:53;44.00;;;19.47;;
15665;SDS011;20725;51.196;3.510;2023-04-24T05:54:20;32.97;;;15.20;;
15665;SDS011;20725;51.196;3.510;2023-04-24T05:56:47;33.40;;;16.10;;
15665;SDS011;20725;51.196;3.510;2023-04-24T05:59:17;32.93;;;15.30;;
15665;SDS011;20725;51.196;3.510;2023-04-24T06:01:44;37.27;;;15.67;;
15665;SDS011;20725;51.196;3.510;2023-04-24T06:04:11;28.63;;;14.10;;
15665;SDS011;20725;51.196;3.510;2023-04-24T06:06:39;29.27;;;14.90;;
15665;SDS011;20725;51.196;3.510;2023-04-24T06:09:06;23.07;;;12.73;;
15665;SDS011;20725;51.196;3.510;2023-04-24T06:11:34;29.87;;;12.93;;
15665;SDS011;20725;51.196;3.510;2023-04-24T06:14:01;34.93;;;12.47;;
15665;SDS011;20725;51.196;3.510;2023-04-24T06:16:30;29.13;;;13.30;;
15665;SDS011;20725;51.196;3.510;2023-04-24T06:18:58;32.03;;;11.90;;
15665;SDS011;20725;51.196;3.510;2023-04-24T06:21:25;28.57;;;12.90;;
15665;SDS011;20725;51.196;3.510;2023-04-24T06:23:52;24.40;;;11.53;;
15665;SDS011;20725;51.196;3.510;2023-04-24T06:26:21;23.00;;;11.07;;
15665;SDS011;20725;51.196;3.510;2023-04-24T06:28:50;27.90;;;11.50;;
15665;SDS011;20725;51.196;3.510;2023-04-24T06:31:18;24.57;;;11.27;;
15665;SDS011;20725;51.196;3.510;2023-04-24T06:33:47;27.43;;;12.23;;
15665;SDS011;20725;51.196;3.510;2023-04-24T06:36:15;26.37;;;11.20;;
15665;SDS011;20725;51.196;3.510;2023-04-24T06:38:42;24.07;;;11.10;;
15665;SDS011;20725;51.196;3.510;2023-04-24T06:41:09;27.10;;;10.57;;
15665;SDS011;20725;51.196;3.510;2023-04-24T06:43:37;23.47;;;9.27;;
15665;SDS011;20725;51.196;3.510;2023-04-24T06:46:04;28.70;;;8.77;;
15665;SDS011;20725;51.196;3.510;2023-04-24T06:48:31;26.50;;;8.20;;
15665;SDS011;20725;51.196;3.510;2023-04-24T06:51:00;23.03;;;8.90;;
15665;SDS011;20725;51.196;3.510;2023-04-24T06:53:27;21.87;;;9.77;;
15665;SDS011;20725;51.196;3.510;2023-04-24T06:55:54;21.77;;;7.40;;
15665;SDS011;20725;51.196;3.510;2023-04-24T06:58:23;21.63;;;7.93;;
15665;SDS011;20725;51.196;3.510;2023-04-24T07:00:51;15.03;;;6.40;;
15665;SDS011;20725;51.196;3.510;2023-04-24T07:03:18;16.17;;;6.10;;
15665;SDS011;20725;51.196;3.510;2023-04-24T07:05:45;16.57;;;5.37;;
15665;SDS011;20725;51.196;3.510;2023-04-24T07:08:14;19.53;;;6.10;;
15665;SDS011;20725;51.196;3.510;2023-04-24T07:10:44;20.83;;;5.90;;
15665;SDS011;20725;51.196;3.510;2023-04-24T07:13:11;16.10;;;5.70;;
15665;SDS011;20725;51.196;3.510;2023-04-24T07:15:40;15.63;;;5.80;;
15665;SDS011;20725;51.196;3.510;2023-04-24T07:18:08;17.37;;;5.87;;
15665;SDS011;20725;51.196;3.510;2023-04-24T07:20:36;16.30;;;5.60;;
15665;SDS011;20725;51.196;3.510;2023-04-24T07:23:04;19.10;;;5.70;;
15665;SDS011;20725;51.196;3.510;2023-04-24T07:25:33;14.23;;;6.10;;
15665;SDS011;20725;51.196;3.510;2023-04-24T07:28:01;19.90;;;6.47;;
15665;SDS011;20725;51.196;3.510;2023-04-24T07:30:29;18.57;;;7.00;;
15665;SDS011;20725;51.196;3.510;2023-04-24T07:32:57;20.63;;;7.80;;
15665;SDS011;20725;51.196;3.510;2023-04-24T07:35:25;23.77;;;7.47;;
15665;SDS011;20725;51.196;3.510;2023-04-24T07:37:53;18.20;;;7.33;;
15665;SDS011;20725;51.196;3.510;2023-04-24T07:40:21;19.00;;;7.97;;
15665;SDS011;20725;51.196;3.510;2023-04-24T07:42:50;20.87;;;8.73;;
15665;SDS011;20725;51.196;3.510;2023-04-24T07:45:18;18.93;;;7.30;;
15665;SDS011;20725;51.196;3.510;2023-04-24T07:47:46;14.93;;;6.63;;
15665;SDS011;20725;51.196;3.510;2023-04-24T07:50:14;16.27;;;5.93;;
15665;SDS011;20725;51.196;3.510;2023-04-24T07:52:41;13.17;;;5.67;;
15665;SDS011;20725;51.196;3.510;2023-04-24T07:55:09;15.23;;;5.40;;
15665;SDS011;20725;51.196;3.510;2023-04-24T07:57:37;13.43;;;5.53;;
15665;SDS011;20725;51.196;3.510;2023-04-24T08:00:07;14.60;;;4.97;;
15665;SDS011;20725;51.196;3.510;2023-04-24T08:02:36;10.23;;;4.10;;
15665;SDS011;20725;51.196;3.510;2023-04-24T08:05:04;11.37;;;4.53;;
15665;SDS011;20725;51.196;3.510;2023-04-24T08:07:32;8.87;;;4.20;;
15665;SDS011;20725;51.196;3.510;2023-04-24T08:10:00;12.60;;;5.53;;
15665;SDS011;20725;51.196;3.510;2023-04-24T08:12:28;10.87;;;4.93;;
15665;SDS011;20725;51.196;3.510;2023-04-24T08:14:57;12.20;;;4.30;;
15665;SDS011;20725;51.196;3.510;2023-04-24T08:17:26;11.03;;;4.37;;
15665;SDS011;20725;51.196;3.510;2023-04-24T08:19:53;11.37;;;5.23;;
15665;SDS011;20725;51.196;3.510;2023-04-24T08:22:26;11.77;;;4.13;;
15665;SDS011;20725;51.196;3.510;2023-04-24T08:24:54;11.77;;;4.17;;
15665;SDS011;20725;51.196;3.510;2023-04-24T08:27:22;12.17;;;4.57;;
15665;SDS011;20725;51.196;3.510;2023-04-24T08:29:53;10.37;;;4.53;;
15665;SDS011;20725;51.196;3.510;2023-04-24T08:32:20;9.30;;;3.67;;
15665;SDS011;20725;51.196;3.510;2023-04-24T08:34:49;9.20;;;3.73;;
15665;SDS011;20725;51.196;3.510;2023-04-24T08:37:17;9.43;;;4.97;;
15665;SDS011;20725;51.196;3.510;2023-04-24T08:39:45;9.07;;;5.63;;
15665;SDS011;20725;51.196;3.510;2023-04-24T08:42:13;11.27;;;6.93;;
15665;SDS011;20725;51.196;3.510;2023-04-24T08:44:41;8.30;;;4.70;;
15665;SDS011;20725;51.196;3.510;2023-04-24T08:47:09;15.63;;;7.90;;
15665;SDS011;20725;51.196;3.510;2023-04-24T08:49:37;21.37;;;8.47;;
15665;SDS011;20725;51.196;3.510;2023-04-24T08:52:07;9.67;;;5.20;;
15665;SDS011;20725;51.196;3.510;2023-04-24T08:54:38;12.20;;;5.17;;
15665;SDS011;20725;51.196;3.510;2023-04-24T08:57:08;12.43;;;6.77;;
15665;SDS011;20725;51.196;3.510;2023-04-24T08:59:36;11.70;;;5.40;;
15665;SDS011;20725;51.196;3.510;2023-04-24T09:02:05;12.33;;;6.30;;
15665;SDS011;20725;51.196;3.510;2023-04-24T09:04:34;9.50;;;5.33;;
15665;SDS011;20725;51.196;3.510;2023-04-24T09:07:02;16.90;;;7.60;;
15665;SDS011;20725;51.196;3.510;2023-04-24T09:09:32;16.37;;;7.90;;
15665;SDS011;20725;51.196;3.510;2023-04-24T09:12:00;19.80;;;7.30;;
15665;SDS011;20725;51.196;3.510;2023-04-24T09:14:28;20.73;;;6.77;;
15665;SDS011;20725;51.196;3.510;2023-04-24T09:16:57;9.63;;;5.77;;
15665;SDS011;20725;51.196;3.510;2023-04-24T09:19:24;10.07;;;5.30;;
15665;SDS011;20725;51.196;3.510;2023-04-24T09:21:52;12.40;;;5.33;;
15665;SDS011;20725;51.196;3.510;2023-04-24T09:24:20;11.70;;;5.37;;
15665;SDS011;20725;51.196;3.510;2023-04-24T09:26:57;10.33;;;4.00;;
15665;SDS011;20725;51.196;3.510;2023-04-24T09:29:26;11.93;;;5.20;;
15665;SDS011;20725;51.196;3.510;2023-04-24T09:31:54;9.70;;;4.37;;
15665;SDS011;20725;51.196;3.510;2023-04-24T09:34:22;12.17;;;5.50;;
15665;SDS011;20725;51.196;3.510;2023-04-24T09:36:50;12.30;;;5.50;;
15665;SDS011;20725;51.196;3.510;2023-04-24T09:39:18;6.80;;;3.73;;
15665;SDS011;20725;51.196;3.510;2023-04-24T09:41:46;7.90;;;4.00;;
15665;SDS011;20725;51.196;3.510;2023-04-24T09:44:16;10.20;;;4.13;;
15665;SDS011;20725;51.196;3.510;2023-04-24T09:46:45;6.83;;;4.47;;
15665;SDS011;20725;51.196;3.510;2023-04-24T09:49:23;9.13;;;4.23;;
15665;SDS011;20725;51.196;3.510;2023-04-24T09:51:51;9.37;;;4.80;;
15665;SDS011;20725;51.196;3.510;2023-04-24T09:54:19;10.27;;;4.43;;
15665;SDS011;20725;51.196;3.510;2023-04-24T09:56:48;9.37;;;4.50;;
15665;SDS011;20725;51.196;3.510;2023-04-24T09:59:18;8.53;;;4.57;;
15665;SDS011;20725;51.196;3.510;2023-04-24T10:01:45;12.83;;;5.13;;
15665;SDS011;20725;51.196;3.510;2023-04-24T10:04:17;10.20;;;3.47;;
15665;SDS011;20725;51.196;3.510;2023-04-24T10:06:46;9.27;;;4.60;;
15665;SDS011;20725;51.196;3.510;2023-04-24T10:09:15;9.20;;;4.37;;
15665;SDS011;20725;51.196;3.510;2023-04-24T10:11:43;8.23;;;3.70;;
15665;SDS011;20725;51.196;3.510;2023-04-24T10:14:12;11.43;;;3.97;;
15665;SDS011;20725;51.196;3.510;2023-04-24T10:16:41;10.73;;;3.83;;
15665;SDS011;20725;51.196;3.510;2023-04-24T10:19:12;7.40;;;3.13;;
15665;SDS011;20725;51.196;3.510;2023-04-24T10:21:40;8.80;;;3.67;;
15665;SDS011;20725;51.196;3.510;2023-04-24T10:24:11;10.80;;;3.27;;
15665;SDS011;20725;51.196;3.510;2023-04-24T10:26:40;4.87;;;2.83;;
15665;SDS011;20725;51.196;3.510;2023-04-24T10:29:09;5.27;;;2.90;;
15665;SDS011;20725;51.196;3.510;2023-04-24T10:31:38;6.33;;;3.07;;
15665;SDS011;20725;51.196;3.510;2023-04-24T10:34:08;7.00;;;3.57;;
15665;SDS011;20725;51.196;3.510;2023-04-24T10:36:41;7.20;;;2.63;;
15665;SDS011;20725;51.196;3.510;2023-04-24T10:39:11;5.87;;;3.23;;
15665;SDS011;20725;51.196;3.510;2023-04-24T10:41:39;7.97;;;2.93;;
15665;SDS011;20725;51.196;3.510;2023-04-24T10:44:07;8.07;;;3.40;;
15665;SDS011;20725;51.196;3.510;2023-04-24T10:46:35;6.17;;;3.30;;
15665;SDS011;20725;51.196;3.510;2023-04-24T10:49:03;6.63;;;3.60;;
15665;SDS011;20725;51.196;3.510;2023-04-24T10:51:46;6.57;;;3.57;;
15665;SDS011;20725;51.196;3.510;2023-04-24T10:54:27;6.83;;;2.70;;
15665;SDS011;20725;51.196;3.510;2023-04-24T10:59:38;6.17;;;2.90;;
15665;SDS011;20725;51.196;3.510;2023-04-24T11:02:06;6.23;;;3.23;;
15665;SDS011;20725;51.196;3.510;2023-04-24T11:04:35;6.27;;;2.63;;
15665;SDS011;20725;51.196;3.510;2023-04-24T11:07:03;4.33;;;2.20;;
15665;SDS011;20725;51.196;3.510;2023-04-24T11:09:32;3.67;;;2.10;;
15665;SDS011;20725;51.196;3.510;2023-04-24T11:12:04;4.10;;;1.63;;
15665;SDS011;20725;51.196;3.510;2023-04-24T11:17:27;3.53;;;2.00;;
15665;SDS011;20725;51.196;3.510;2023-04-24T11:20:00;3.93;;;2.00;;
15665;SDS011;20725;51.196;3.510;2023-04-24T11:22:30;2.37;;;1.57;;
15665;SDS011;20725;51.196;3.510;2023-04-24T11:25:00;6.77;;;2.10;;
15665;SDS011;20725;51.196;3.510;2023-04-24T11:27:29;1.93;;;1.33;;
15665;SDS011;20725;51.196;3.510;2023-04-24T11:29:59;3.97;;;1.50;;
15665;SDS011;20725;51.196;3.510;2023-04-24T11:32:28;3.33;;;1.67;;
15665;SDS011;20725;51.196;3.510;2023-04-24T11:34:57;3.17;;;1.67;;
15665;SDS011;20725;51.196;3.510;2023-04-24T11:37:26;2.80;;;1.37;;
15665;SDS011;20725;51.196;3.510;2023-04-24T11:39:56;4.13;;;1.43;;
15665;SDS011;20725;51.196;3.510;2023-04-24T11:42:28;5.50;;;1.67;;
15665;SDS011;20725;51.196;3.510;2023-04-24T11:44:56;3.67;;;1.70;;
15665;SDS011;20725;51.196;3.510;2023-04-24T11:47:28;3.10;;;1.47;;
15665;SDS011;20725;51.196;3.510;2023-04-24T11:49:58;6.80;;;1.70;;
15665;SDS011;20725;51.196;3.510;2023-04-24T11:52:26;4.53;;;1.53;;
15665;SDS011;20725;51.196;3.510;2023-04-24T11:54:55;3.03;;;1.40;;
15665;SDS011;20725;51.196;3.510;2023-04-24T11:57:26;3.57;;;1.30;;
15665;SDS011;20725;51.196;3.510;2023-04-24T11:59:59;3.03;;;1.53;;
15665;SDS011;20725;51.196;3.510;2023-04-24T12:02:27;3.87;;;1.53;;
15665;SDS011;20725;51.196;3.510;2023-04-24T12:04:55;3.90;;;1.70;;
15665;SDS011;20725;51.196;3.510;2023-04-24T12:07:23;3.97;;;1.93;;
15665;SDS011;20725;51.196;3.510;2023-04-24T12:09:57;2.93;;;1.67;;
15665;SDS011;20725;51.196;3.510;2023-04-24T12:12:26;4.60;;;1.90;;
15665;SDS011;20725;51.196;3.510;2023-04-24T12:14:55;4.63;;;2.30;;
15665;SDS011;20725;51.196;3.510;2023-04-24T12:17:27;4.30;;;2.03;;
15665;SDS011;20725;51.196;3.510;2023-04-24T12:19:59;3.43;;;1.80;;
15665;SDS011;20725;51.196;3.510;2023-04-24T12:22:27;5.03;;;1.93;;
15665;SDS011;20725;51.196;3.510;2023-04-24T12:24:57;4.47;;;1.70;;
15665;SDS011;20725;51.196;3.510;2023-04-24T12:27:25;2.93;;;1.63;;
15665;SDS011;20725;51.196;3.510;2023-04-24T12:29:53;2.23;;;1.40;;
15665;SDS011;20725;51.196;3.510;2023-04-24T12:32:21;4.17;;;1.90;;
15665;SDS011;20725;51.196;3.510;2023-04-24T12:34:49;3.70;;;1.53;;
15665;SDS011;20725;51.196;3.510;2023-04-24T12:37:18;6.67;;;1.87;;
15665;SDS011;20725;51.196;3.510;2023-04-24T12:40:03;4.30;;;1.87;;
15665;SDS011;20725;51.196;3.510;2023-04-24T12:42:32;4.30;;;1.77;;
15665;SDS011;20725;51.196;3.510;2023-04-24T12:45:02;5.30;;;2.00;;
15665;SDS011;20725;51.196;3.510;2023-04-24T12:47:30;2.63;;;1.40;;
15665;SDS011;20725;51.196;3.510;2023-04-24T12:49:58;4.23;;;1.77;;
15665;SDS011;20725;51.196;3.510;2023-04-24T12:52:27;5.23;;;1.60;;
15665;SDS011;20725;51.196;3.510;2023-04-24T12:54:55;4.07;;;1.73;;
15665;SDS011;20725;51.196;3.510;2023-04-24T12:57:25;2.07;;;1.50;;
15665;SDS011;20725;51.196;3.510;2023-04-24T12:59:53;6.30;;;2.00;;
15665;SDS011;20725;51.196;3.510;2023-04-24T13:02:22;3.50;;;1.40;;
15665;SDS011;20725;51.196;3.510;2023-04-24T13:04:49;4.03;;;1.43;;
15665;SDS011;20725;51.196;3.510;2023-04-24T13:07:17;4.37;;;1.93;;
15665;SDS011;20725;51.196;3.510;2023-04-24T13:09:45;2.93;;;1.60;;
15665;SDS011;20725;51.196;3.510;2023-04-24T13:12:13;2.40;;;1.10;;
15665;SDS011;20725;51.196;3.510;2023-04-24T13:14:43;3.67;;;1.30;;
15665;SDS011;20725;51.196;3.510;2023-04-24T13:17:10;0.87;;;0.80;;
15665;SDS011;20725;51.196;3.510;2023-04-24T13:19:40;2.40;;;1.10;;
15665;SDS011;20725;51.196;3.510;2023-04-24T13:22:08;2.43;;;0.93;;
15665;SDS011;20725;51.196;3.510;2023-04-24T13:24:37;1.97;;;0.93;;
15665;SDS011;20725;51.196;3.510;2023-04-24T13:27:06;3.17;;;1.40;;
15665;SDS011;20725;51.196;3.510;2023-04-24T13:29:34;1.67;;;1.00;;
15665;SDS011;20725;51.196;3.510;2023-04-24T13:32:03;1.90;;;0.90;;
15665;SDS011;20725;51.196;3.510;2023-04-24T13:34:31;1.43;;;1.10;;
15665;SDS011;20725;51.196;3.510;2023-04-24T13:37:02;2.40;;;1.40;;
15665;SDS011;20725;51.196;3.510;2023-04-24T13:39:30;3.37;;;1.37;;
15665;SDS011;20725;51.196;3.510;2023-04-24T13:41:58;1.47;;;1.03;;
15665;SDS011;20725;51.196;3.510;2023-04-24T13:44:26;3.27;;;1.43;;
15665;SDS011;20725;51.196;3.510;2023-04-24T13:46:54;3.03;;;1.33;;
15665;SDS011;20725;51.196;3.510;2023-04-24T13:49:24;4.10;;;1.60;;
15665;SDS011;20725;51.196;3.510;2023-04-24T13:51:52;2.80;;;1.50;;
15665;SDS011;20725;51.196;3.510;2023-04-24T13:54:20;2.07;;;1.10;;
15665;SDS011;20725;51.196;3.510;2023-04-24T13:56:48;2.10;;;1.20;;
15665;SDS011;20725;51.196;3.510;2023-04-24T13:59:17;3.17;;;1.50;;
15665;SDS011;20725;51.196;3.510;2023-04-24T14:01:44;3.87;;;1.43;;
15665;SDS011;20725;51.196;3.510;2023-04-24T14:04:12;5.23;;;1.93;;
15665;SDS011;20725;51.196;3.510;2023-04-24T14:06:42;2.30;;;1.60;;
15665;SDS011;20725;51.196;3.510;2023-04-24T14:09:11;2.57;;;1.70;;
15665;SDS011;20725;51.196;3.510;2023-04-24T14:11:39;4.03;;;1.97;;
15665;SDS011;20725;51.196;3.510;2023-04-24T14:14:07;3.70;;;1.80;;
15665;SDS011;20725;51.196;3.510;2023-04-24T14:16:35;3.30;;;1.70;;
15665;SDS011;20725;51.196;3.510;2023-04-24T14:19:02;4.97;;;1.63;;
15665;SDS011;20725;51.196;3.510;2023-04-24T14:21:30;3.40;;;1.60;;
15665;SDS011;20725;51.196;3.510;2023-04-24T14:24:00;3.13;;;1.77;;
15665;SDS011;20725;51.196;3.510;2023-04-24T14:26:28;3.67;;;1.60;;
15665;SDS011;20725;51.196;3.510;2023-04-24T14:28:56;2.77;;;1.60;;
15665;SDS011;20725;51.196;3.510;2023-04-24T14:31:24;2.77;;;1.67;;
15665;SDS011;20725;51.196;3.510;2023-04-24T14:33:52;3.93;;;1.77;;
15665;SDS011;20725;51.196;3.510;2023-04-24T14:36:20;2.63;;;1.60;;
15665;SDS011;20725;51.196;3.510;2023-04-24T14:38:48;2.87;;;1.50;;
15665;SDS011;20725;51.196;3.510;2023-04-24T14:41:18;4.27;;;1.80;;
15665;SDS011;20725;51.196;3.510;2023-04-24T14:43:46;2.40;;;1.53;;
15665;SDS011;20725;51.196;3.510;2023-04-24T14:46:14;1.87;;;1.30;;
15665;SDS011;20725;51.196;3.510;2023-04-24T14:48:42;4.87;;;2.20;;
15665;SDS011;20725;51.196;3.510;2023-04-24T14:51:10;2.37;;;1.37;;
15665;SDS011;20725;51.196;3.510;2023-04-24T14:53:38;2.40;;;1.47;;